Federal Sable — V7WS4 — position and weather

sailwx.info

Track history (hours):
 
Tides and Currents Weather Stations Pressure Air Temp Water Temp Dewpoint Dewpoint Depression Visibility Wind Speed Wind Dir Waves Ship Positions

Federal Sable

Last reported at 2014-Oct-19 17:27 UTC. Time now 2014-Oct-23 06:50 UTC.
Position N 41°21' E 029°13'.

Length 190 m; draft 6.5 m.

Type: Cargo ship. MMSI: 538004380.

Date/timePositionNaut miles runAvg speedWind from/ knotsBaromVisibWave heightAir tempDewpointWater temp
2014-Oct-19 17:27N 41°21' E 029°13'22 7.5
2014-Oct-19 14:31N 41°01' E 028°60'8 7.9
2014-Oct-19 13:32N 40°54' E 028°56'9 8.4
2014-Oct-19 12:31N 40°49' E 028°47'10 9.5
2014-Oct-19 11:27N 40°43' E 028°36'3 1.3
2014-Oct-19 09:11N 40°45' E 028°39'1 1.7
2014-Oct-19 08:23N 40°46' E 028°40'2 1.8
2014-Oct-19 07:23N 40°47' E 028°42'2 1.6
2014-Oct-19 06:15N 40°48' E 028°44'5 7.3
2014-Oct-19 05:33N 40°42' E 028°44'5 3.7
2014-Oct-19 04:18N 40°39' E 028°41'2 1.9
2014-Oct-19 03:18N 40°40' E 028°42'5 1.6
2014-Oct-19 00:30N 40°45' E 028°42'4 1.2
2014-Oct-18 21:12N 40°48' E 028°45'3 3.2
2014-Oct-18 20:24N 40°50' E 028°44'131 9.3
2014-Oct-18 06:18N 39°60' E 026°06'7 9.3
2014-Oct-18 05:32N 39°56' E 025°58'10 9.8
2014-Oct-18 04:29N 39°49' E 025°48'9 9.6
2014-Oct-18 03:33N 39°42' E 025°41'2310.0
2014-Oct-18 01:13N 39°20' E 025°30'9810.0
2014-Oct-17 15:29N 37°53' E 024°34'1010.6
2014-Oct-17 14:32N 37°47' E 024°24'3310.9
2014-Oct-17 11:33N 37°21' E 023°59'1110.8
2014-Oct-17 10:32N 37°11' E 023°52'11 9.8
2014-Oct-17 09:26N 37°02' E 023°45'10 9.4
2014-Oct-17 08:19N 36°54' E 023°36'810.3
2014-Oct-17 07:33N 36°48' E 023°31'1010.2
2014-Oct-17 06:33N 36°39' E 023°25'5 5.4
2014-Oct-17 05:33N 36°35' E 023°21'9 9.3
2014-Oct-17 04:33N 36°42' E 023°28'9 8.9
2014-Oct-17 03:33N 36°33' E 023°25'1010.1
2014-Oct-17 02:33N 36°24' E 023°20'10 9.5
2014-Oct-17 01:33N 36°16' E 023°15'1010.1
2014-Oct-17 00:33N 36°06' E 023°10'9 9.0
2014-Oct-16 23:33N 36°03' E 022°59'35610.7
2014-Oct-15 14:19N 37°46' E 015°53'18 9.5
2014-Oct-15 12:28N 37°57' E 015°36'12 8.6
2014-Oct-15 11:05N 38°09' E 015°35'14 7.6
2014-Oct-15 09:15N 38°23' E 015°34'710.1
2014-Oct-15 08:32N 38°28' E 015°27'79 9.8
2014-Oct-15 00:27N 39°25' E 014°16'1010.1
2014-Oct-14 23:28N 39°33' E 014°08'910.1
2014-Oct-14 22:33N 39°39' E 013°59'1010.3
2014-Oct-14 21:33N 39°47' E 013°50'1010.1
2014-Oct-14 20:33N 39°54' E 013°41'10 9.9
2014-Oct-14 19:33N 40°01' E 013°32'1210.0
2014-Oct-14 18:22N 40°10' E 013°22'  
Track history (hours):
 
Tides and Currents Weather Stations Pressure Air Temp Water Temp Dewpoint Dewpoint Depression Visibility Wind Speed Wind Dir Waves Ship Positions

Federal Sable

Last reported at 2014-Oct-19 17:27 UTC. Time now 2014-Oct-23 06:50 UTC.
Position N 41°21' E 029°13'.

Length 190 m; draft 6.5 m.

Type: Cargo ship. MMSI: 538004380.

Date/timePositionNaut miles runAvg speedWind from/ knotsBaromVisibWave heightAir tempDewpointWater temp
2014-Oct-19 17:27N 41°21' E 029°13'22 7.5
2014-Oct-19 14:31N 41°01' E 028°60'8 7.9
2014-Oct-19 13:32N 40°54' E 028°56'9 8.4
2014-Oct-19 12:31N 40°49' E 028°47'10 9.5
2014-Oct-19 11:27N 40°43' E 028°36'3 1.3
2014-Oct-19 09:11N 40°45' E 028°39'1 1.7
2014-Oct-19 08:23N 40°46' E 028°40'2 1.8
2014-Oct-19 07:23N 40°47' E 028°42'2 1.6
2014-Oct-19 06:15N 40°48' E 028°44'5 7.3
2014-Oct-19 05:33N 40°42' E 028°44'5 3.7
2014-Oct-19 04:18N 40°39' E 028°41'2 1.9
2014-Oct-19 03:18N 40°40' E 028°42'5 1.6
2014-Oct-19 00:30N 40°45' E 028°42'4 1.2
2014-Oct-18 21:12N 40°48' E 028°45'3 3.2
2014-Oct-18 20:24N 40°50' E 028°44'131 9.3
2014-Oct-18 06:18N 39°60' E 026°06'7 9.3
2014-Oct-18 05:32N 39°56' E 025°58'10 9.8
2014-Oct-18 04:29N 39°49' E 025°48'9 9.6
2014-Oct-18 03:33N 39°42' E 025°41'2310.0
2014-Oct-18 01:13N 39°20' E 025°30'9810.0
2014-Oct-17 15:29N 37°53' E 024°34'1010.6
2014-Oct-17 14:32N 37°47' E 024°24'3310.9
2014-Oct-17 11:33N 37°21' E 023°59'1110.8
2014-Oct-17 10:32N 37°11' E 023°52'11 9.8
2014-Oct-17 09:26N 37°02' E 023°45'10 9.4
2014-Oct-17 08:19N 36°54' E 023°36'810.3
2014-Oct-17 07:33N 36°48' E 023°31'1010.2
2014-Oct-17 06:33N 36°39' E 023°25'5 5.4
2014-Oct-17 05:33N 36°35' E 023°21'9 9.3
2014-Oct-17 04:33N 36°42' E 023°28'9 8.9
2014-Oct-17 03:33N 36°33' E 023°25'1010.1
2014-Oct-17 02:33N 36°24' E 023°20'10 9.5
2014-Oct-17 01:33N 36°16' E 023°15'1010.1
2014-Oct-17 00:33N 36°06' E 023°10'9 9.0
2014-Oct-16 23:33N 36°03' E 022°59'35610.7
2014-Oct-15 14:19N 37°46' E 015°53'18 9.5
2014-Oct-15 12:28N 37°57' E 015°36'12 8.6
2014-Oct-15 11:05N 38°09' E 015°35'14 7.6
2014-Oct-15 09:15N 38°23' E 015°34'710.1
2014-Oct-15 08:32N 38°28' E 015°27'79 9.8
2014-Oct-15 00:27N 39°25' E 014°16'1010.1
2014-Oct-14 23:28N 39°33' E 014°08'910.1
2014-Oct-14 22:33N 39°39' E 013°59'1010.3
2014-Oct-14 21:33N 39°47' E 013°50'1010.1
2014-Oct-14 20:33N 39°54' E 013°41'10 9.9
2014-Oct-14 19:33N 40°01' E 013°32'1210.0
2014-Oct-14 18:22N 40°10' E 013°22'  

Dump ship's entire track history